MSC Suez — HPMS — position and weather

sailwx.info

Track history (hours):
 
Tides and Currents Weather Stations Pressure Air Temp Water Temp Dewpoint Dewpoint Depression Visibility Wind Speed Wind Dir Waves Ship Positions

MSC Suez

Last reported at 2015-Jul-30 04:33 UTC. Time now 2015-Jul-30 06:06 UTC.
Position N 51°22' E 002°24'.

Length 237 m; draft 11.9 m.

Type: Cargo ship. MMSI: 355289000.

Date/timePositionNaut miles runAvg speedWind from/ knotsBaromVisibWave heightAir tempDewpointWater temp
2015-Jul-30 04:33N 51°22' E 002°24'1615.4
2015-Jul-30 03:33N 51°22' E 002°48'1616.1
2015-Jul-30 02:33N 51°25' E 003°14'1514.8
2015-Jul-30 01:33N 51°26' E 003°37'1111.4
2015-Jul-30 00:33N 51°22' E 003°54'8 7.7
2015-Jul-29 23:34N 51°22' E 004°06'7 7.0
2015-Jul-29 22:33N 51°21' E 004°17'0 0.0
2015-Jul-29 21:34N 51°21' E 004°17'1 1.0
2015-Jul-29 20:33N 51°20' E 004°18'1 0.8
2015-Jul-29 19:33N 51°19' E 004°19'0 0.0
2015-Jul-29 18:21N 51°19' E 004°19'0 0.0
2015-Jul-29 17:33N 51°19' E 004°19'0 0.0
2015-Jul-29 16:33N 51°19' E 004°19'0 0.0
2015-Jul-29 15:33N 51°19' E 004°19'0 0.0
2015-Jul-29 14:27N 51°19' E 004°19'0 0.0
2015-Jul-29 13:24N 51°19' E 004°19'0 0.0
2015-Jul-29 12:33N 51°19' E 004°19'0 0.0
2015-Jul-29 11:30N 51°19' E 004°19'0 0.0
2015-Jul-29 10:33N 51°19' E 004°19'0 0.0
2015-Jul-29 09:33N 51°19' E 004°19'0 0.0
2015-Jul-29 08:33N 51°19' E 004°19'0 0.0
2015-Jul-29 07:33N 51°19' E 004°19'0 0.0
2015-Jul-29 06:31N 51°19' E 004°19'0 0.0
2015-Jul-29 05:31N 51°19' E 004°19'0 0.0
2015-Jul-29 04:31N 51°19' E 004°19'0 0.0
2015-Jul-29 03:31N 51°19' E 004°19'0 0.0
2015-Jul-29 02:28N 51°19' E 004°19'0 0.0
2015-Jul-29 01:33N 51°19' E 004°19'2 2.0
2015-Jul-29 00:34N 51°21' E 004°17'0 0.1
2015-Jul-28 23:33N 51°21' E 004°17'5 4.8
2015-Jul-28 22:33N 51°24' E 004°11'7 7.4
2015-Jul-28 21:34N 51°26' E 003°60'1110.5
2015-Jul-28 20:34N 51°22' E 003°44'9 8.6
2015-Jul-28 19:34N 51°25' E 003°31'1010.1
2015-Jul-28 18:34N 51°25' E 003°15'9 9.1
2015-Jul-28 17:33N 51°30' E 003°04'1514.8
2015-Jul-28 16:32N 51°44' E 003°14'5 3.7
2015-Jul-28 15:10N 51°47' E 003°20'0 0.1
2015-Jul-28 14:31N 51°47' E 003°20'0 0.0
2015-Jul-28 13:31N 51°47' E 003°20'0 0.0
2015-Jul-28 12:31N 51°47' E 003°20'0 0.0
2015-Jul-28 11:25N 51°47' E 003°20'0 0.0
2015-Jul-28 10:28N 51°47' E 003°20'0 0.0
2015-Jul-28 09:31N 51°47' E 003°20'0 0.0
2015-Jul-28 08:25N 51°47' E 003°20'0 0.2
2015-Jul-28 07:33N 51°47' E 003°19'1111.0
2015-Jul-28 06:33N 51°58' E 003°20'7116.3
2015-Jul-28 02:11N 53°03' E 004°10'1015.6
2015-Jul-28 01:33N 53°09' E 004°23'3315.1
2015-Jul-27 23:22N 53°40' E 004°42'2115.7
2015-Jul-27 22:03N 53°59' E 004°54'815.8
2015-Jul-27 21:31N 54°07' E 004°60'1616.1
2015-Jul-27 20:33N 54°21' E 005°11'22916.0
2015-Jul-27 06:16N 57°32' E 008°57'1217.1
2015-Jul-27 05:34N 57°38' E 009°16'1716.1
2015-Jul-27 04:31N 57°43' E 009°46'1515.1
2015-Jul-27 03:33N 57°47' E 010°13'1414.1
2015-Jul-27 02:33N 57°49' E 010°39'1414.1
2015-Jul-27 01:33N 57°41' E 011°00'1515.1
2015-Jul-27 00:33N 57°31' E 011°21'1515.0
2015-Jul-26 23:34N 57°17' E 011°33'1615.6
2015-Jul-26 22:33N 57°03' E 011°44'1515.3
2015-Jul-26 21:33N 56°48' E 011°53'1615.8
2015-Jul-26 20:33N 56°34' E 011°41'8113.5
2015-Jul-26 14:31N 55°15' E 011°06'1312.2
2015-Jul-26 13:27N 55°02' E 011°02'1213.9
2015-Jul-26 12:33N 54°51' E 010°53'1312.9
2015-Jul-26 11:34N 54°39' E 011°03'1413.9
2015-Jul-26 10:34N 54°32' E 011°23'1414.2
2015-Jul-26 09:33N 54°26' E 011°45'1514.6
2015-Jul-26 08:34N 54°27' E 012°10'1814.6
2015-Jul-26 07:21N 54°41' E 012°28'1315.7
2015-Jul-26 06:31N 54°48' E 012°47'1615.7
2015-Jul-26 05:31N 54°53' E 013°13'1414.4
2015-Jul-26 04:34N 54°57' E 013°36'1514.5
2015-Jul-26 03:34N 55°03' E 013°59'1514.8
2015-Jul-26 02:33N 55°13' E 014°17'1515.3
2015-Jul-26 01:34N 55°25' E 014°34'1615.7
2015-Jul-26 00:34N 55°33' E 014°58'1615.5
2015-Jul-25 23:34N 55°41' E 015°22'1615.6
2015-Jul-25 22:34N 55°49' E 015°46'1715.6
2015-Jul-25 21:27N 55°58' E 016°13'27015.8
2015-Jul-25 04:26N 59°15' E 021°55'1416.1
2015-Jul-25 03:33N 59°23' E 022°17'1615.7
2015-Jul-25 02:33N 59°31' E 022°44'1615.8
2015-Jul-25 01:33N 59°36' E 023°14'1615.7
2015-Jul-25 00:33N 59°41' E 023°44'1715.6
2015-Jul-24 23:27N 59°46' E 024°16'1415.5
2015-Jul-24 22:33N 59°49' E 024°43'1514.7
2015-Jul-24 21:33N 59°52' E 025°12'1515.5
2015-Jul-24 20:34N 59°55' E 025°42'1515.4
2015-Jul-24 19:33N 59°58' E 026°12'1514.9
2015-Jul-24 18:33N 60°01' E 026°41'1414.1
2015-Jul-24 17:33N 60°01' E 027°09'7111.8
2015-Jul-24 11:32N 60°01' E 029°32'1010.6
2015-Jul-24 10:33N 59°57' E 029°51'1010.3
2015-Jul-24 09:33N 59°53' E 030°10'2 1.6
2015-Jul-24 08:32N 59°52' E 030°12'0 0.0
2015-Jul-24 07:32N 59°52' E 030°12'0 0.0
2015-Jul-24 06:32N 59°52' E 030°12'0 0.0
2015-Jul-24 05:32N 59°52' E 030°12'0 0.0
2015-Jul-24 04:32N 59°52' E 030°12'0 0.0
2015-Jul-24 03:32N 59°52' E 030°12'0 0.0
2015-Jul-24 02:32N 59°52' E 030°12'0 0.0
2015-Jul-24 01:33N 59°52' E 030°12'0 0.0
2015-Jul-24 00:33N 59°52' E 030°12'0 0.0
2015-Jul-23 23:30N 59°52' E 030°12'0 0.0
2015-Jul-23 22:33N 59°52' E 030°12'0 0.0
2015-Jul-23 21:33N 59°52' E 030°12'0 0.0
2015-Jul-23 20:33N 59°52' E 030°12'0 0.0
2015-Jul-23 19:33N 59°52' E 030°12'0 0.0
2015-Jul-23 18:32N 59°52' E 030°12'0 0.0
2015-Jul-23 17:32N 59°52' E 030°12'0 0.0
2015-Jul-23 16:32N 59°52' E 030°12'0 0.0
2015-Jul-23 15:32N 59°52' E 030°12'0 0.0
2015-Jul-23 14:32N 59°52' E 030°12'0 0.0
2015-Jul-23 13:32N 59°52' E 030°12'0 0.0
2015-Jul-23 12:32N 59°52' E 030°12'0 0.0
2015-Jul-23 11:32N 59°52' E 030°12'0 0.0
2015-Jul-23 10:32N 59°52' E 030°12'0 0.0
2015-Jul-23 09:32N 59°52' E 030°12'0 0.0
2015-Jul-23 08:32N 59°52' E 030°12'0 0.0
2015-Jul-23 07:33N 59°52' E 030°12'0 0.0
2015-Jul-23 06:33N 59°52' E 030°12'0 0.0
2015-Jul-23 05:33N 59°52' E 030°12'0 0.0
2015-Jul-23 04:33N 59°52' E 030°12'0 0.0
2015-Jul-23 03:33N 59°52' E 030°12'0 0.0
2015-Jul-23 02:33N 59°52' E 030°12'0 0.0
2015-Jul-23 01:33N 59°52' E 030°12'0 0.0
2015-Jul-23 00:33N 59°52' E 030°12'0 0.0
2015-Jul-22 23:33N 59°52' E 030°12'0 0.0
2015-Jul-22 22:33N 59°52' E 030°12'0 0.0
2015-Jul-22 21:33N 59°52' E 030°12'0 0.0
2015-Jul-22 20:33N 59°52' E 030°12'0 0.0
2015-Jul-22 19:33N 59°52' E 030°12'0 0.0
2015-Jul-22 18:33N 59°52' E 030°12'0 0.0
2015-Jul-22 17:33N 59°52' E 030°12'0 0.0
2015-Jul-22 16:33N 59°52' E 030°12'0 0.0
2015-Jul-22 15:33N 59°52' E 030°12'0 0.5
2015-Jul-22 14:33N 59°53' E 030°12'6 6.4
2015-Jul-22 13:33N 59°55' E 030°00'1010.4
2015-Jul-22 12:33N 59°60' E 029°41'9712.2
2015-Jul-22 04:33N 59°58' E 026°27'1313.1
2015-Jul-22 03:33N 59°54' E 026°02'1713.0
2015-Jul-22 02:17N 59°50' E 025°30'1213.0
2015-Jul-22 01:21N 59°48' E 025°06'1013.1
2015-Jul-22 00:34N 59°46' E 024°46'1313.1
2015-Jul-21 23:33N 59°43' E 024°20'2215.1
2015-Jul-21 22:07N 59°36' E 023°39'1016.7
2015-Jul-21 21:31N 59°33' E 023°21'30916.8
2015-Jul-21 03:07N 55°57' E 016°26'916.2
2015-Jul-21 02:32N 55°53' E 016°11'1616.4
2015-Jul-21 01:34N 55°46' E 015°46'1616.4
2015-Jul-21 00:33N 55°37' E 015°21'1716.7
2015-Jul-20 23:33N 55°29' E 014°56'1616.4
2015-Jul-20 22:34N 55°19' E 014°32'1716.6
2015-Jul-20 21:34N 55°06' E 014°15'1616.0
2015-Jul-20 20:34N 54°57' E 013°51'1716.6
2015-Jul-20 19:34N 54°52' E 013°24'1716.6
2015-Jul-20 18:32N 54°47' E 012°56'1616.7
2015-Jul-20 17:33N 54°40' E 012°30'1615.7
2015-Jul-20 16:32N 54°27' E 012°14'1515.6
2015-Jul-20 15:33N 54°24' E 011°48'1716.7
2015-Jul-20 14:33N 54°32' E 011°22'1716.6
2015-Jul-20 13:33N 54°40' E 010°57'1714.4
2015-Jul-20 12:23N 54°57' E 010°57'1415.4
2015-Jul-20 11:28N 55°10' E 011°03'  
Track history (hours):
 
Tides and Currents Weather Stations Pressure Air Temp Water Temp Dewpoint Dewpoint Depression Visibility Wind Speed Wind Dir Waves Ship Positions

MSC Suez

Last reported at 2015-Jul-30 04:33 UTC. Time now 2015-Jul-30 06:06 UTC.
Position N 51°22' E 002°24'.

Length 237 m; draft 11.9 m.

Type: Cargo ship. MMSI: 355289000.

Date/timePositionNaut miles runAvg speedWind from/ knotsBaromVisibWave heightAir tempDewpointWater temp
2015-Jul-30 04:33N 51°22' E 002°24'1615.4
2015-Jul-30 03:33N 51°22' E 002°48'1616.1
2015-Jul-30 02:33N 51°25' E 003°14'1514.8
2015-Jul-30 01:33N 51°26' E 003°37'1111.4
2015-Jul-30 00:33N 51°22' E 003°54'8 7.7
2015-Jul-29 23:34N 51°22' E 004°06'7 7.0
2015-Jul-29 22:33N 51°21' E 004°17'0 0.0
2015-Jul-29 21:34N 51°21' E 004°17'1 1.0
2015-Jul-29 20:33N 51°20' E 004°18'1 0.8
2015-Jul-29 19:33N 51°19' E 004°19'0 0.0
2015-Jul-29 18:21N 51°19' E 004°19'0 0.0
2015-Jul-29 17:33N 51°19' E 004°19'0 0.0
2015-Jul-29 16:33N 51°19' E 004°19'0 0.0
2015-Jul-29 15:33N 51°19' E 004°19'0 0.0
2015-Jul-29 14:27N 51°19' E 004°19'0 0.0
2015-Jul-29 13:24N 51°19' E 004°19'0 0.0
2015-Jul-29 12:33N 51°19' E 004°19'0 0.0
2015-Jul-29 11:30N 51°19' E 004°19'0 0.0
2015-Jul-29 10:33N 51°19' E 004°19'0 0.0
2015-Jul-29 09:33N 51°19' E 004°19'0 0.0
2015-Jul-29 08:33N 51°19' E 004°19'0 0.0
2015-Jul-29 07:33N 51°19' E 004°19'0 0.0
2015-Jul-29 06:31N 51°19' E 004°19'0 0.0
2015-Jul-29 05:31N 51°19' E 004°19'0 0.0
2015-Jul-29 04:31N 51°19' E 004°19'0 0.0
2015-Jul-29 03:31N 51°19' E 004°19'0 0.0
2015-Jul-29 02:28N 51°19' E 004°19'0 0.0
2015-Jul-29 01:33N 51°19' E 004°19'2 2.0
2015-Jul-29 00:34N 51°21' E 004°17'0 0.1
2015-Jul-28 23:33N 51°21' E 004°17'5 4.8
2015-Jul-28 22:33N 51°24' E 004°11'7 7.4
2015-Jul-28 21:34N 51°26' E 003°60'1110.5
2015-Jul-28 20:34N 51°22' E 003°44'9 8.6
2015-Jul-28 19:34N 51°25' E 003°31'1010.1
2015-Jul-28 18:34N 51°25' E 003°15'9 9.1
2015-Jul-28 17:33N 51°30' E 003°04'1514.8
2015-Jul-28 16:32N 51°44' E 003°14'5 3.7
2015-Jul-28 15:10N 51°47' E 003°20'0 0.1
2015-Jul-28 14:31N 51°47' E 003°20'0 0.0
2015-Jul-28 13:31N 51°47' E 003°20'0 0.0
2015-Jul-28 12:31N 51°47' E 003°20'0 0.0
2015-Jul-28 11:25N 51°47' E 003°20'0 0.0
2015-Jul-28 10:28N 51°47' E 003°20'0 0.0
2015-Jul-28 09:31N 51°47' E 003°20'0 0.0
2015-Jul-28 08:25N 51°47' E 003°20'0 0.2
2015-Jul-28 07:33N 51°47' E 003°19'1111.0
2015-Jul-28 06:33N 51°58' E 003°20'7116.3
2015-Jul-28 02:11N 53°03' E 004°10'1015.6
2015-Jul-28 01:33N 53°09' E 004°23'3315.1
2015-Jul-27 23:22N 53°40' E 004°42'2115.7
2015-Jul-27 22:03N 53°59' E 004°54'815.8
2015-Jul-27 21:31N 54°07' E 004°60'1616.1
2015-Jul-27 20:33N 54°21' E 005°11'22916.0
2015-Jul-27 06:16N 57°32' E 008°57'1217.1
2015-Jul-27 05:34N 57°38' E 009°16'1716.1
2015-Jul-27 04:31N 57°43' E 009°46'1515.1
2015-Jul-27 03:33N 57°47' E 010°13'1414.1
2015-Jul-27 02:33N 57°49' E 010°39'1414.1
2015-Jul-27 01:33N 57°41' E 011°00'1515.1
2015-Jul-27 00:33N 57°31' E 011°21'1515.0
2015-Jul-26 23:34N 57°17' E 011°33'1615.6
2015-Jul-26 22:33N 57°03' E 011°44'1515.3
2015-Jul-26 21:33N 56°48' E 011°53'1615.8
2015-Jul-26 20:33N 56°34' E 011°41'8113.5
2015-Jul-26 14:31N 55°15' E 011°06'1312.2
2015-Jul-26 13:27N 55°02' E 011°02'1213.9
2015-Jul-26 12:33N 54°51' E 010°53'1312.9
2015-Jul-26 11:34N 54°39' E 011°03'1413.9
2015-Jul-26 10:34N 54°32' E 011°23'1414.2
2015-Jul-26 09:33N 54°26' E 011°45'1514.6
2015-Jul-26 08:34N 54°27' E 012°10'1814.6
2015-Jul-26 07:21N 54°41' E 012°28'1315.7
2015-Jul-26 06:31N 54°48' E 012°47'1615.7
2015-Jul-26 05:31N 54°53' E 013°13'1414.4
2015-Jul-26 04:34N 54°57' E 013°36'1514.5
2015-Jul-26 03:34N 55°03' E 013°59'1514.8
2015-Jul-26 02:33N 55°13' E 014°17'1515.3
2015-Jul-26 01:34N 55°25' E 014°34'1615.7
2015-Jul-26 00:34N 55°33' E 014°58'1615.5
2015-Jul-25 23:34N 55°41' E 015°22'1615.6
2015-Jul-25 22:34N 55°49' E 015°46'1715.6
2015-Jul-25 21:27N 55°58' E 016°13'27015.8
2015-Jul-25 04:26N 59°15' E 021°55'1416.1
2015-Jul-25 03:33N 59°23' E 022°17'1615.7
2015-Jul-25 02:33N 59°31' E 022°44'1615.8
2015-Jul-25 01:33N 59°36' E 023°14'1615.7
2015-Jul-25 00:33N 59°41' E 023°44'1715.6
2015-Jul-24 23:27N 59°46' E 024°16'1415.5
2015-Jul-24 22:33N 59°49' E 024°43'1514.7
2015-Jul-24 21:33N 59°52' E 025°12'1515.5
2015-Jul-24 20:34N 59°55' E 025°42'1515.4
2015-Jul-24 19:33N 59°58' E 026°12'1514.9
2015-Jul-24 18:33N 60°01' E 026°41'1414.1
2015-Jul-24 17:33N 60°01' E 027°09'7111.8
2015-Jul-24 11:32N 60°01' E 029°32'1010.6
2015-Jul-24 10:33N 59°57' E 029°51'1010.3
2015-Jul-24 09:33N 59°53' E 030°10'2 1.6
2015-Jul-24 08:32N 59°52' E 030°12'0 0.0
2015-Jul-24 07:32N 59°52' E 030°12'0 0.0
2015-Jul-24 06:32N 59°52' E 030°12'0 0.0
2015-Jul-24 05:32N 59°52' E 030°12'0 0.0
2015-Jul-24 04:32N 59°52' E 030°12'0 0.0
2015-Jul-24 03:32N 59°52' E 030°12'0 0.0
2015-Jul-24 02:32N 59°52' E 030°12'0 0.0
2015-Jul-24 01:33N 59°52' E 030°12'0 0.0
2015-Jul-24 00:33N 59°52' E 030°12'0 0.0
2015-Jul-23 23:30N 59°52' E 030°12'0 0.0
2015-Jul-23 22:33N 59°52' E 030°12'0 0.0
2015-Jul-23 21:33N 59°52' E 030°12'0 0.0
2015-Jul-23 20:33N 59°52' E 030°12'0 0.0
2015-Jul-23 19:33N 59°52' E 030°12'0 0.0
2015-Jul-23 18:32N 59°52' E 030°12'0 0.0
2015-Jul-23 17:32N 59°52' E 030°12'0 0.0
2015-Jul-23 16:32N 59°52' E 030°12'0 0.0
2015-Jul-23 15:32N 59°52' E 030°12'0 0.0
2015-Jul-23 14:32N 59°52' E 030°12'0 0.0
2015-Jul-23 13:32N 59°52' E 030°12'0 0.0
2015-Jul-23 12:32N 59°52' E 030°12'0 0.0
2015-Jul-23 11:32N 59°52' E 030°12'0 0.0
2015-Jul-23 10:32N 59°52' E 030°12'0 0.0
2015-Jul-23 09:32N 59°52' E 030°12'0 0.0
2015-Jul-23 08:32N 59°52' E 030°12'0 0.0
2015-Jul-23 07:33N 59°52' E 030°12'0 0.0
2015-Jul-23 06:33N 59°52' E 030°12'0 0.0
2015-Jul-23 05:33N 59°52' E 030°12'0 0.0
2015-Jul-23 04:33N 59°52' E 030°12'0 0.0
2015-Jul-23 03:33N 59°52' E 030°12'0 0.0
2015-Jul-23 02:33N 59°52' E 030°12'0 0.0
2015-Jul-23 01:33N 59°52' E 030°12'0 0.0
2015-Jul-23 00:33N 59°52' E 030°12'0 0.0
2015-Jul-22 23:33N 59°52' E 030°12'0 0.0
2015-Jul-22 22:33N 59°52' E 030°12'0 0.0
2015-Jul-22 21:33N 59°52' E 030°12'0 0.0
2015-Jul-22 20:33N 59°52' E 030°12'0 0.0
2015-Jul-22 19:33N 59°52' E 030°12'0 0.0
2015-Jul-22 18:33N 59°52' E 030°12'0 0.0
2015-Jul-22 17:33N 59°52' E 030°12'0 0.0
2015-Jul-22 16:33N 59°52' E 030°12'0 0.0
2015-Jul-22 15:33N 59°52' E 030°12'0 0.5
2015-Jul-22 14:33N 59°53' E 030°12'6 6.4
2015-Jul-22 13:33N 59°55' E 030°00'1010.4
2015-Jul-22 12:33N 59°60' E 029°41'9712.2
2015-Jul-22 04:33N 59°58' E 026°27'1313.1
2015-Jul-22 03:33N 59°54' E 026°02'1713.0
2015-Jul-22 02:17N 59°50' E 025°30'1213.0
2015-Jul-22 01:21N 59°48' E 025°06'1013.1
2015-Jul-22 00:34N 59°46' E 024°46'1313.1
2015-Jul-21 23:33N 59°43' E 024°20'2215.1
2015-Jul-21 22:07N 59°36' E 023°39'1016.7
2015-Jul-21 21:31N 59°33' E 023°21'30916.8
2015-Jul-21 03:07N 55°57' E 016°26'916.2
2015-Jul-21 02:32N 55°53' E 016°11'1616.4
2015-Jul-21 01:34N 55°46' E 015°46'1616.4
2015-Jul-21 00:33N 55°37' E 015°21'1716.7
2015-Jul-20 23:33N 55°29' E 014°56'1616.4
2015-Jul-20 22:34N 55°19' E 014°32'1716.6
2015-Jul-20 21:34N 55°06' E 014°15'1616.0
2015-Jul-20 20:34N 54°57' E 013°51'1716.6
2015-Jul-20 19:34N 54°52' E 013°24'1716.6
2015-Jul-20 18:32N 54°47' E 012°56'1616.7
2015-Jul-20 17:33N 54°40' E 012°30'1615.7
2015-Jul-20 16:32N 54°27' E 012°14'1515.6
2015-Jul-20 15:33N 54°24' E 011°48'1716.7
2015-Jul-20 14:33N 54°32' E 011°22'1716.6
2015-Jul-20 13:33N 54°40' E 010°57'1714.4
2015-Jul-20 12:23N 54°57' E 010°57'1415.4
2015-Jul-20 11:28N 55°10' E 011°03'  

Dump ship's entire track history